Rechercher aéroport 
image banner adimage banner ad
image banner ad

SIUA - Fazenda Barra do Lagoa Airport

Situé à Santa Rita Do Pardo, Brazil

ICAO - SIUA, IATA -

Données fournies par Airmate  

Information générale

Coordonnées: S30°7'10" W50°51'13"
Élévation : 118 feet MSL.
Variation magnétique : -17° East
Voir autres Aéroports à Rio Grande do Sul

Données opérationnelles

Accessible au public
Heure actuelle UTC:
Heure actuelle locale:
Météo à : SBPA - Salgado Filho ( 34 km )
METAR: SBPA 230400Z 10010KT CAVOK 20/19 Q1016
TAF: TAF SBPA 222100Z 2300/2324 10008KT 8000 SCT006 TN20/2308Z TX26/2316Z PROB30 2304/2310 5000 BR BKN004 BECMG 2315/2317 13014KT CAVOK BECMG 2318/2320 12010KT RMK PAY
Voir NOTAMs / SUP AIP / TFR affectant cet aéroport [VIEW]
Fréquences de communication: [VIEW]

Pistes:

Identifiant RWYQFULongueur (ft)Largeur (ft)SurfaceLDA (ft)
17147665GRASS
35147665GRASS

Coordonnées de l'aéroport

Adresse: Santa Rita Do Pardo Brazil

Vue satellite de SIUA